Time;durP1;ratioP1;P1;durP2;ratioP2;P2;SDS_P1;SDS_P2;PMS_P1;PMS_P2;Temp;Humidity;BMP_temperature;BMP_pressure;BME280_temperature;BME280_humidity;BME280_pressure;Samples;Min_cycle;Max_cycle;Signal;HPM_P1;HPM_P2
2024/03/09 00:00:42;;;;;;;6.43;0.88;;;9.40;65.00;;;;;;5048686;28;20570;-79
2024/03/09 00:03:10;;;;;;;0.73;0.73;;;9.50;64.70;;;;;;5048615;28;20036;-79
2024/03/09 00:05:36;;;;;;;2.17;0.93;;;;;;;;;;5048516;28;20490;-79
2024/03/09 00:08:03;;;;;;;0.40;0.40;;;;;;;;;;5048591;28;20619;-79
2024/03/09 00:10:29;;;;;;;0.50;0.50;;;9.50;64.70;;;;;;5047972;28;20063;-79
2024/03/09 00:12:57;;;;;;;0.50;0.50;;;9.50;64.40;;;;;;5048834;28;20056;-79
2024/03/09 00:15:24;;;;;;;1.95;0.60;;;9.50;64.50;;;;;;5048220;28;20298;-79
2024/03/09 00:17:55;;;;;;;0.65;0.65;;;9.50;71.50;;;;;;5054895;28;20025;-79
2024/03/09 00:20:32;;;;;;;1.35;0.80;;;9.30;64.40;;;;;;5047314;28;20029;-79
2024/03/09 00:22:58;;;;;;;0.40;0.40;;;9.20;86.90;;;;;;5047256;28;20165;-79
2024/03/09 00:25:25;;;;;;;0.82;0.70;;;9.30;64.80;;;;;;5049527;28;20167;-78
2024/03/09 00:27:54;;;;;;;2.03;0.52;;;9.40;87.20;;;;;;5047287;28;20032;-79
2024/03/09 00:30:20;;;;;;;0.40;0.40;;;;;;;;;;5048066;28;20068;-79
2024/03/09 00:32:58;;;;;;;4.95;0.93;;;9.20;64.70;;;;;;5046959;28;20032;-78
2024/03/09 00:35:25;;;;;;;6.70;0.73;;;;;;;;;;5048447;28;20055;-79
2024/03/09 00:37:52;;;;;;;0.43;0.40;;;;;;;;;;5045927;28;20068;-79
2024/03/09 00:40:17;;;;;;;1.27;0.65;;;9.30;64.50;;;;;;5047537;28;20022;-79
2024/03/09 00:42:46;;;;;;;0.40;0.40;;;9.20;65.40;;;;;;5048124;28;20417;-79
2024/03/09 00:45:16;;;;;;;0.40;0.40;;;8.50;64.40;;;;;;5051542;28;20043;-79
2024/03/09 00:47:46;;;;;;;1.75;0.73;;;9.10;64.70;;;;;;5048405;28;20029;-79
2024/03/09 00:50:12;;;;;;;0.45;0.45;;;;;;;;;;5052190;28;20036;-79
2024/03/09 00:52:38;;;;;;;0.68;0.50;;;;;;;;;;5050383;28;20048;-79
2024/03/09 00:55:10;;;;;;;0.32;0.32;;;9.00;78.20;;;;;;5051660;28;20116;-79
2024/03/09 00:57:37;;;;;;;0.40;0.40;;;9.10;65.10;;;;;;5051188;28;20017;-79
2024/03/09 01:00:10;;;;;;;0.40;0.40;;;8.90;77.10;;;;;;5052049;28;20406;-79
2024/03/09 01:02:35;;;;;;;0.40;0.40;;;8.90;87.40;;;;;;5051613;28;20408;-78
2024/03/09 01:05:01;;;;;;;0.80;0.43;;;;;;;;;;5049817;28;20029;-79
2024/03/09 01:07:30;;;;;;;0.47;0.35;;;;;;;;;;5051130;28;20029;-79
2024/03/09 01:09:56;;;;;;;0.40;0.40;;;;;;;;;;5050236;28;20517;-79
2024/03/09 01:12:22;;;;;;;0.40;0.40;;;;;;;;;;5051780;28;20033;-79
2024/03/09 01:14:48;;;;;;;0.57;0.57;;;;;;;;;;5051671;28;20025;-78
2024/03/09 01:17:17;;;;;;;0.65;0.40;;;9.40;64.70;;;;;;5041611;28;20031;-79
2024/03/09 01:19:45;;;;;;;0.88;0.77;;;;;;;;;;5052456;28;20494;-79
2024/03/09 01:22:12;;;;;;;0.38;0.32;;;;;;;;;;5051676;28;20056;-79
2024/03/09 01:24:39;;;;;;;0.55;0.55;;;;;;;;;;5052265;28;20029;-79
2024/03/09 01:27:05;;;;;;;0.57;0.57;;;;;;;;;;5041449;28;20144;-78
2024/03/09 01:29:32;;;;;;;5.15;1.63;;;;;;;;;;5051075;28;20101;-79
2024/03/09 01:32:01;;;;;;;0.40;0.40;;;;;;;;;;5051364;28;20052;-79
2024/03/09 01:34:27;;;;;;;6.63;0.50;;;;;;;;;;5054337;28;20036;-78
2024/03/09 01:36:54;;;;;;;3.63;0.50;;;;;;;;;;5052175;28;20029;-79
2024/03/09 01:39:20;;;;;;;0.47;0.47;;;;;;;;;;5052800;28;20120;-79
2024/03/09 01:41:46;;;;;;;0.50;0.50;;;;;;;;;;5052110;28;20401;-79
2024/03/09 01:44:14;;;;;;;0.40;0.40;;;;;;;;;;5044976;28;20044;-79
2024/03/09 01:46:40;;;;;;;0.50;0.50;;;;;;;;;;5051481;28;20095;-79
2024/03/09 01:49:06;;;;;;;0.40;0.40;;;9.00;66.50;;;;;;5052804;28;20071;-79
2024/03/09 01:51:34;;;;;;;0.40;0.40;;;9.00;66.90;;;;;;5051996;28;20025;-79
2024/03/09 01:54:01;;;;;;;0.50;0.50;;;;;;;;;;5063051;28;20112;-79
2024/03/09 01:56:27;;;;;;;0.40;0.40;;;;;;;;;;5061100;28;20109;-79
2024/03/09 01:58:54;;;;;;;1.23;1.13;;;;;;;;;;5039987;28;20025;-79
2024/03/09 02:01:22;;;;;;;0.30;0.30;;;8.50;68.20;;;;;;5051298;28;20252;-79
2024/03/09 02:03:55;;;;;;;0.38;0.38;;;8.60;78.00;;;;;;5042788;28;20028;-78
2024/03/09 02:06:27;;;;;;;0.40;0.40;;;8.70;69.10;;;;;;5059383;28;20032;-79
2024/03/09 02:08:57;;;;;;;0.75;0.47;;;8.70;73.50;;;;;;5063253;28;20440;-78
2024/03/09 02:11:24;;;;;;;0.40;0.40;;;8.80;68.80;;;;;;5049963;28;20040;-78
2024/03/09 02:13:53;;;;;;;0.50;0.50;;;8.80;87.60;;;;;;5050541;28;20048;-79
2024/03/09 02:16:19;;;;;;;1.17;0.50;;;;;;;;;;5055522;28;20498;-79
2024/03/09 02:18:48;;;;;;;0.52;0.52;;;;;;;;;;5043890;28;20057;-79
2024/03/09 02:21:14;;;;;;;1.63;0.60;;;;;;;;;;5050369;28;20021;-79
2024/03/09 02:23:41;;;;;;;0.32;0.32;;;9.00;69.40;;;;;;5047552;28;20033;-79
2024/03/09 02:26:08;;;;;;;1.92;0.60;;;;;;;;;;5032393;28;20021;-78
2024/03/09 02:28:34;;;;;;;3.92;0.70;;;;;;;;;;5049623;28;20025;-79
2024/03/09 02:31:00;;;;;;;0.50;0.50;;;;;;;;;;5049604;28;20028;-79
2024/03/09 02:33:27;;;;;;;0.52;0.43;;;;;;;;;;5040341;28;20259;-79
2024/03/09 02:35:54;;;;;;;1.50;0.50;;;;;;;;;;5052534;28;20025;-79
2024/03/09 02:38:20;;;;;;;0.40;0.40;;;9.00;69.80;;;;;;5049721;28;20354;-79
2024/03/09 02:40:47;;;;;;;0.40;0.40;;;;;;;;;;5049186;28;20024;-79
2024/03/09 02:43:13;;;;;;;0.37;0.37;;;;;;;;;;5049356;28;20045;-79
2024/03/09 02:45:39;;;;;;;0.50;0.50;;;9.00;70.00;;;;;;5049528;28;20252;-78
2024/03/09 02:48:06;;;;;;;0.60;0.60;;;9.00;70.80;;;;;;5049792;28;20108;-79
2024/03/09 02:50:32;;;;;;;0.50;0.50;;;;;;;;;;5049507;28;20053;-79
2024/03/09 02:53:00;;;;;;;1.02;0.95;;;9.00;91.20;;;;;;5049101;28;20104;-79
2024/03/09 02:55:26;;;;;;;0.55;0.40;;;;;;;;;;5049665;28;20048;-79
2024/03/09 02:57:52;;;;;;;7.28;0.80;;;;;;;;;;5049100;28;20552;-79
2024/03/09 03:00:26;;;;;;;0.30;0.30;;;8.80;91.40;;;;;;5049320;28;20112;-79
2024/03/09 03:05:36;;;;;;;0.30;0.30;;;8.80;91.60;;;;;;5046514;28;20031;-79
2024/03/09 03:08:04;;;;;;;0.30;0.30;;;;;;;;;;5049415;28;20064;-79
2024/03/09 03:10:30;;;;;;;0.60;0.60;;;;;;;;;;5048603;28;20051;-79
2024/03/09 03:12:56;;;;;;;0.50;0.50;;;;;;;;;;5047483;28;20040;-79
2024/03/09 03:15:22;;;;;;;0.32;0.32;;;;;;;;;;5053350;28;20448;-79
2024/03/09 03:17:48;;;;;;;0.47;0.47;;;;;;;;;;5080838;28;20028;-79
2024/03/09 03:20:16;;;;;;;0.45;0.45;;;;;;;;;;5071097;28;20405;-79
2024/03/09 03:22:42;;;;;;;1.08;0.63;;;;;;;;;;5069192;28;20033;-79
2024/03/09 03:25:11;;;;;;;1.67;0.52;;;8.60;82.50;;;;;;5069323;28;20028;-79
2024/03/09 03:27:37;;;;;;;0.40;0.40;;;;;;;;;;5068468;28;20029;-79
2024/03/09 03:30:06;;;;;;;1.27;0.50;;;9.10;73.80;;;;;;5048226;28;20033;-79
2024/03/09 03:32:31;;;;;;;0.63;0.63;;;;;;;;;;5036607;28;20024;-79
2024/03/09 03:34:57;;;;;;;0.50;0.50;;;;;;;;;;5071288;28;20101;-79
2024/03/09 03:37:24;;;;;;;0.55;0.55;;;;;;;;;;5069165;28;20059;-79
2024/03/09 03:39:50;;;;;;;0.50;0.50;;;;;;;;;;5050951;28;20056;-79
2024/03/09 03:42:16;;;;;;;0.30;0.30;;;;;;;;;;5068271;28;20028;-79
2024/03/09 03:44:42;;;;;;;1.58;0.63;;;;;;;;;;5077272;28;20463;-79
2024/03/09 03:47:08;;;;;;;0.40;0.40;;;;;;;;;;5064756;28;20052;-79
2024/03/09 03:49:35;;;;;;;0.38;0.38;;;;;;;;;;5059132;28;20508;-79
2024/03/09 03:52:01;;;;;;;1.70;0.95;;;;;;;;;;5050559;28;20024;-79
2024/03/09 03:54:30;;;;;;;0.77;0.60;;;;;;;;;;5068854;28;20021;-79
2024/03/09 03:56:56;;;;;;;0.43;0.43;;;;;;;;;;5068820;28;20068;-79
2024/03/09 03:59:22;;;;;;;0.50;0.50;;;;;;;;;;5059984;28;20086;-79
2024/03/09 04:01:49;;;;;;;1.42;1.05;;;;;;;;;;5068579;28;20028;-79
2024/03/09 04:04:15;;;;;;;0.57;0.50;;;;;;;;;;5068441;28;20043;-79
2024/03/09 04:06:44;;;;;;;0.45;0.45;;;;;;;;;;5068857;28;20095;-79
2024/03/09 04:09:13;;;;;;;3.05;0.70;;;8.90;71.90;;;;;;5068559;28;20032;-79
2024/03/09 04:11:40;;;;;;;0.50;0.50;;;;;;;;;;5068369;28;20019;-78
2024/03/09 04:14:06;;;;;;;0.40;0.40;;;;;;;;;;5068276;28;20497;-79
2024/03/09 04:16:33;;;;;;;0.60;0.60;;;;;;;;;;5068577;28;20066;-79
2024/03/09 04:19:02;;;;;;;1.10;0.57;;;9.30;70.70;;;;;;5072784;28;20485;-79
2024/03/09 04:21:28;;;;;;;1.90;0.57;;;;;;;;;;5072691;28;20032;-79
2024/03/09 04:23:54;;;;;;;1.17;0.57;;;;;;;;;;5072383;28;20041;-79
2024/03/09 04:26:19;;;;;;;0.50;0.50;;;9.10;78.00;;;;;;5071674;28;20028;-79
2024/03/09 04:28:45;;;;;;;0.50;0.50;;;;;;;;;;5072415;28;20031;-79
2024/03/09 04:31:11;;;;;;;0.50;0.50;;;;;;;;;;5066184;28;20024;-79
2024/03/09 04:33:37;;;;;;;5.60;0.50;;;;;;;;;;5072798;28;20470;-79
2024/03/09 04:36:06;;;;;;;0.60;0.60;;;;;;;;;;5068612;28;20037;-79
2024/03/09 04:38:32;;;;;;;1.95;1.17;;;;;;;;;;5055551;28;20402;-79
2024/03/09 04:40:58;;;;;;;0.60;0.60;;;;;;;;;;5054227;28;20058;-79
2024/03/09 04:43:26;;;;;;;0.65;0.50;;;;;;;;;;5071013;28;20386;-78
2024/03/09 04:45:55;;;;;;;;;;;10.20;68.40;;;;;;5072526;28;20017;-79
2024/03/09 04:48:21;;;;;;;0.60;0.60;;;;;;;;;;5069915;28;20392;-79
2024/03/09 04:50:48;;;;;;;0.52;0.52;;;9.40;67.80;;;;;;5070041;28;20472;-79
2024/03/09 04:53:14;;;;;;;0.53;0.53;;;;;;;;;;5071830;28;20018;-79
2024/03/09 04:55:44;;;;;;;1.45;0.73;;;;;;;;;;5061967;28;20342;-79
2024/03/09 04:58:17;;;;;;;0.60;0.60;;;;;;;;;;5071075;28;20025;-79
2024/03/09 05:00:44;;;;;;;0.50;0.47;;;;;;;;;;5071715;28;20056;-79
2024/03/09 05:03:13;;;;;;;0.40;0.40;;;9.40;67.50;;;;;;5067535;28;20033;-79
2024/03/09 05:05:40;;;;;;;1.42;0.55;;;;;;;;;;5072313;28;20035;-79
2024/03/09 05:08:06;;;;;;;0.70;0.70;;;9.40;88.40;;;;;;5087223;28;20024;-79
2024/03/09 05:10:32;;;;;;;0.47;0.47;;;;;;;;;;5086586;28;20021;-79
2024/03/09 05:12:59;;;;;;;0.55;0.50;;;;;;;;;;5065960;28;20089;-79
2024/03/09 05:15:30;;;;;;;0.43;0.43;;;9.50;67.20;;;;;;5086465;28;20044;-79
2024/03/09 05:18:00;;;;;;;3.83;0.90;;;9.60;66.80;;;;;;5070971;28;20527;-79
2024/03/09 05:20:29;;;;;;;0.57;0.57;;;9.70;66.20;;;;;;5071975;28;20062;-79
2024/03/09 05:22:57;;;;;;;4.38;0.50;;;9.80;65.90;;;;;;5070612;28;20119;-79
2024/03/09 05:25:23;;;;;;;1.45;0.65;;;;;;;;;;5084839;28;20032;-79
2024/03/09 05:27:50;;;;;;;0.65;0.65;;;;;;;;;;5066442;28;20048;-79
2024/03/09 05:30:18;;;;;;;0.82;0.77;;;9.80;65.60;;;;;;5083604;28;20020;-79
2024/03/09 05:32:54;;;;;;;1.48;0.60;;;9.80;65.60;;;;;;5058338;28;20052;-79
2024/03/09 05:35:28;;;;;;;2.15;0.40;;;9.60;65.70;;;;;;5071596;28;20020;-78
2024/03/09 05:37:55;;;;;;;0.65;0.65;;;9.60;65.90;;;;;;5071144;28;20028;-78
2024/03/09 05:40:21;;;;;;;0.50;0.40;;;9.70;66.10;;;;;;5070746;28;20025;-80
2024/03/09 05:42:48;;;;;;;0.45;0.45;;;9.70;65.90;;;;;;5071031;28;20104;-79
2024/03/09 05:45:20;;;;;;;0.75;0.73;;;;;;;;;;5053293;28;20027;-79
2024/03/09 05:47:47;;;;;;;0.38;0.38;;;;;;;;;;5063056;28;20103;-79
2024/03/09 05:50:13;;;;;;;1.10;0.98;;;;;;;;;;5069021;28;20377;-79
2024/03/09 05:52:40;;;;;;;2.75;1.55;;;;;;;;;;5052771;28;20115;-79
2024/03/09 05:55:07;;;;;;;16.27;5.55;;;;;;;;;;5072207;28;20033;-79
2024/03/09 05:57:34;;;;;;;1.48;1.35;;;;;;;;;;5064815;28;20025;-79
2024/03/09 06:00:00;;;;;;;2.43;1.53;;;;;;;;;;5071780;28;20036;-79
2024/03/09 06:02:26;;;;;;;24.88;9.45;;;;;;;;;;5071204;28;20251;-79
2024/03/09 06:04:51;;;;;;;3.47;1.60;;;;;;;;;;5070810;28;20035;-79
2024/03/09 06:07:17;;;;;;;1.67;1.58;;;;;;;;;;5070530;28;20032;-79
2024/03/09 06:09:45;;;;;;;15.27;4.13;;;9.70;66.50;;;;;;5062348;28;20028;-79
2024/03/09 06:12:14;;;;;;;4.65;2.03;;;;;;;;;;5070533;28;20105;-79
2024/03/09 06:14:44;;;;;;;3.08;2.05;;;;;;;;;;5052385;28;20025;-79
2024/03/09 06:17:10;;;;;;;11.75;5.63;;;;;;;;;;5062975;28;20051;-79
2024/03/09 06:19:36;;;;;;;5.18;2.33;;;;;;;;;;5071281;28;20382;-79
2024/03/09 06:22:02;;;;;;;1.95;1.45;;;;;;;;;;5069404;28;20032;-79
2024/03/09 06:24:32;;;;;;;6.53;1.58;;;;;;;;;;5069890;28;20028;-79
2024/03/09 06:27:00;;;;;;;3.83;1.33;;;;;;;;;;5069715;28;20435;-78
2024/03/09 06:29:26;;;;;;;9.02;4.15;;;;;;;;;;5063292;28;20098;-79
2024/03/09 06:31:52;;;;;;;7.80;3.78;;;;;;;;;;5069763;28;20052;-83
2024/03/09 06:34:18;;;;;;;9.65;2.85;;;;;;;;;;5054339;28;20549;-83
2024/03/09 06:36:46;;;;;;;29.88;7.82;;;;;;;;;;5072978;28;20119;-83
2024/03/09 06:39:12;;;;;;;5.30;1.92;;;;;;;;;;5069941;28;20242;-81
2024/03/09 06:41:40;;;;;;;13.48;2.45;;;;;;;;;;5081428;28;20031;-83
2024/03/09 06:44:14;;;;;;;3.92;1.02;;;;;;;;;;5076588;28;20040;-83
2024/03/09 06:46:40;;;;;;;16.15;6.47;;;;;;;;;;5074741;28;20021;-83
2024/03/09 06:49:08;;;;;;;4.57;2.63;;;;;;;;;;5067173;28;20048;-82
2024/03/09 06:51:34;;;;;;;1.55;1.25;;;;;;;;;;5063775;28;20029;-83
2024/03/09 06:54:00;;;;;;;1.05;1.02;;;;;;;;;;5070143;28;20031;-83
2024/03/09 06:56:26;;;;;;;4.68;1.42;;;;;;;;;;5075679;28;20021;-83
2024/03/09 06:58:55;;;;;;;1.58;1.48;;;;;;;;;;5075891;28;20031;-83
2024/03/09 07:01:24;;;;;;;2.75;1.15;;;;;;;;;;5081232;28;20020;-83
2024/03/09 07:03:50;;;;;;;1.52;0.80;;;;;;;;;;5084941;28;20040;-83
2024/03/09 07:06:16;;;;;;;4.85;1.40;;;;;;;;;;5069463;28;20028;-83
2024/03/09 07:08:42;;;;;;;0.50;0.50;;;;;;;;;;5065842;28;20024;-83
2024/03/09 07:11:09;;;;;;;3.83;1.38;;;;;;;;;;5062984;28;20028;-84
2024/03/09 07:13:35;;;;;;;1.85;0.65;;;;;;;;;;5074093;28;20050;-83
2024/03/09 07:16:01;;;;;;;7.38;1.70;;;;;;;;;;5075233;28;20092;-83
2024/03/09 07:18:30;;;;;;;1.42;0.98;;;;;;;;;;5071017;28;20031;-83
2024/03/09 07:20:57;;;;;;;2.70;1.20;;;;;;;;;;5061615;28;20032;-83
2024/03/09 07:23:23;;;;;;;2.05;1.17;;;;;;;;;;5071418;28;20048;-83
2024/03/09 07:25:49;;;;;;;2.05;0.90;;;;;;;;;;5065408;28;20456;-83
2024/03/09 07:28:14;;;;;;;5.72;1.95;;;10.80;85.00;;;;;;5058879;28;20108;-83
2024/03/09 07:30:40;;;;;;;11.13;2.45;;;10.90;85.10;;;;;;5068343;28;20124;-83
2024/03/09 07:33:07;;;;;;;5.53;3.28;;;;;;;;;;5057738;28;20466;-83
2024/03/09 07:35:34;;;;;;;0.85;0.85;;;;;;;;;;5050826;28;20032;-83
2024/03/09 07:38:00;;;;;;;3.70;1.63;;;;;;;;;;5049431;28;20035;-83
2024/03/09 07:40:26;;;;;;;7.15;1.80;;;;;;;;;;5067166;28;20260;-83
2024/03/09 07:42:53;;;;;;;0.63;0.63;;;11.20;59.60;;;;;;5056579;28;20473;-83
2024/03/09 07:45:19;;;;;;;0.80;0.60;;;;;;;;;;5066717;28;20094;-83
2024/03/09 07:47:49;;;;;;;2.90;1.00;;;11.40;59.20;;;;;;5058852;28;20414;-83
2024/03/09 07:50:21;;;;;;;0.85;0.60;;;11.40;58.70;;;;;;5062016;28;20080;-83
2024/03/09 07:52:47;;;;;;;5.97;1.23;;;;;;;;;;5056520;28;20021;-83
2024/03/09 07:55:16;;;;;;;0.80;0.70;;;11.50;58.20;;;;;;5067313;28;20493;-82
2024/03/09 07:57:43;;;;;;;0.85;0.60;;;;;;;;;;5074515;28;20394;-82
2024/03/09 08:00:16;;;;;;;1.48;0.68;;;11.50;67.30;;;;;;5078896;28;20021;-83
2024/03/09 08:02:43;;;;;;;0.60;0.60;;;;;;;;;;5062881;28;20401;-83
2024/03/09 08:05:14;;;;;;;0.50;0.50;;;;;;;;;;5062374;28;20171;-83
2024/03/09 08:07:40;;;;;;;0.57;0.57;;;;;;;;;;5072434;28;20077;-83
2024/03/09 08:10:06;;;;;;;0.80;0.80;;;11.70;80.30;;;;;;5069588;28;20025;-83
2024/03/09 08:12:34;;;;;;;0.93;0.70;;;11.70;57.40;;;;;;5071177;28;20017;-83
2024/03/09 08:15:00;;;;;;;1.23;0.73;;;12.10;79.50;;;;;;5071841;28;20117;-83
2024/03/09 08:17:26;;;;;;;2.08;0.65;;;;;;;;;;5064464;28;20017;-83
2024/03/09 08:19:52;;;;;;;0.60;0.60;;;;;;;;;;5074614;28;20017;-83
2024/03/09 08:22:18;;;;;;;2.80;0.73;;;;;;;;;;5060184;28;20050;-83
2024/03/09 08:24:44;;;;;;;1.85;0.80;;;;;;;;;;5067976;28;20032;-83
2024/03/09 08:27:10;;;;;;;0.80;0.65;;;;;;;;;;5065432;28;20031;-81
2024/03/09 08:29:36;;;;;;;1.33;0.70;;;;;;;;;;5061483;28;20024;-83
2024/03/09 08:32:05;;;;;;;0.95;0.70;;;;;;;;;;5065101;28;20043;-83
2024/03/09 08:34:31;;;;;;;1.00;0.70;;;;;;;;;;5068410;28;20032;-82
2024/03/09 08:36:59;;;;;;;0.57;0.57;;;;;;;;;;5070722;28;20546;-84
2024/03/09 08:39:28;;;;;;;7.68;2.40;;;;;;;;;;5067251;28;20040;-83
2024/03/09 08:41:55;;;;;;;0.70;0.70;;;;;;;;;;5063787;28;20053;-84
2024/03/09 08:44:21;;;;;;;0.80;0.63;;;;;;;;;;5088610;28;20043;-83
2024/03/09 08:46:47;;;;;;;1.65;0.60;;;;;;;;;;5074803;28;20032;-83
2024/03/09 08:49:13;;;;;;;1.15;0.65;;;;;;;;;;5065274;28;20420;-84
2024/03/09 08:51:40;;;;;;;4.80;1.13;;;;;;;;;;5067237;28;20020;-83
2024/03/09 08:54:05;;;;;;;1.42;0.82;;;11.60;79.50;;;;;;5074475;28;20044;-83
2024/03/09 08:56:34;;;;;;;1.70;1.20;;;;;;;;;;5064578;28;20421;-83
2024/03/09 08:59:02;;;;;;;1.00;0.50;;;;;;;;;;5073762;28;20059;-82
2024/03/09 09:01:31;;;;;;;;;;;11.60;57.10;;;;;;5069463;28;20028;-83
2024/03/09 09:03:59;;;;;;;0.73;0.73;;;;;;;;;;5060062;28;19973;-82
2024/03/09 09:06:25;;;;;;;1.60;0.70;;;;;;;;;;5071885;28;20032;-84
2024/03/09 09:08:51;;;;;;;0.73;0.63;;;;;;;;;;5072264;28;20070;-83
2024/03/09 09:11:18;;;;;;;0.55;0.55;;;;;;;;;;5071567;28;20032;-83
2024/03/09 09:13:44;;;;;;;0.90;0.80;;;;;;;;;;5071480;28;20037;-83
2024/03/09 09:16:10;;;;;;;1.63;0.90;;;11.40;79.40;;;;;;5081861;28;20497;-83
2024/03/09 09:18:37;;;;;;;1.20;0.50;;;;;;;;;;5089243;28;20036;-83
2024/03/09 09:21:03;;;;;;;1.30;1.30;;;11.60;58.20;;;;;;5069567;28;20025;-83
2024/03/09 09:23:29;;;;;;;4.97;0.73;;;;;;;;;;5063516;28;20029;-83
2024/03/09 09:25:57;;;;;;;0.60;0.60;;;;;;;;;;5070226;28;20472;-83
2024/03/09 09:28:23;;;;;;;1.17;0.95;;;;;;;;;;5069403;28;20029;-83
2024/03/09 09:30:49;;;;;;;0.95;0.73;;;;;;;;;;5075236;28;20469;-83
2024/03/09 09:33:16;;;;;;;0.65;0.50;;;;;;;;;;5070070;28;20044;-83
2024/03/09 09:35:42;;;;;;;1.15;0.82;;;;;;;;;;5069502;28;20511;-83
2024/03/09 09:38:08;;;;;;;0.93;0.75;;;;;;;;;;5054476;28;20104;-83
2024/03/09 09:40:34;;;;;;;6.70;0.75;;;;;;;;;;5066895;28;20028;-83
2024/03/09 09:43:02;;;;;;;0.63;0.60;;;;;;;;;;5076639;28;20586;-83
2024/03/09 09:45:31;;;;;;;;;;;12.30;54.80;;;;;;5089398;28;20035;-83
2024/03/09 09:47:59;;;;;;;0.68;0.60;;;;;;;;;;5077767;28;19915;-83
2024/03/09 09:50:26;;;;;;;1.83;0.80;;;12.10;54.50;;;;;;5068200;28;20401;-83
2024/03/09 09:52:56;;;;;;;2.08;0.38;;;12.30;54.10;;;;;;5060631;28;20493;-83
2024/03/09 09:55:22;;;;;;;4.50;0.55;;;;;;;;;;5075372;28;20027;-83
2024/03/09 09:57:51;;;;;;;0.50;0.50;;;;;;;;;;5071781;28;20048;-82
2024/03/09 10:00:23;;;;;;;2.95;0.82;;;12.10;54.10;;;;;;5068597;28;20025;-83
2024/03/09 10:02:49;;;;;;;1.00;0.55;;;;;;;;;;5072375;28;20515;-83
2024/03/09 10:05:16;;;;;;;1.00;0.70;;;12.20;54.10;;;;;;5072435;28;20028;-84
2024/03/09 10:08:06;;;;;;;0.40;0.40;;;12.20;54.00;;;;;;5066449;28;20029;-82
2024/03/09 10:10:35;;;;;;;0.65;0.60;;;;;;;;;;5065666;28;20047;-84
2024/03/09 10:13:17;;;;;;;0.40;0.40;;;12.10;54.00;;;;;;5074608;28;20026;-83
2024/03/09 10:15:45;;;;;;;1.33;0.70;;;12.10;54.10;;;;;;5068214;28;20049;-83
2024/03/09 10:18:12;;;;;;;0.52;0.52;;;;;;;;;;5056277;28;20121;-83
2024/03/09 10:20:39;;;;;;;0.40;0.40;;;;;;;;;;5070620;28;20033;-83
2024/03/09 10:23:08;;;;;;;0.50;0.50;;;;;;;;;;5071853;28;20558;-82
2024/03/09 10:25:37;;;;;;;0.40;0.40;;;;;;;;;;5082617;28;20033;-83
2024/03/09 10:28:07;;;;;;;0.50;0.50;;;;;;;;;;5071955;28;20040;-83
2024/03/09 10:30:37;;;;;;;0.50;0.50;;;;;;;;;;5061437;28;20040;-84
2024/03/09 10:33:03;;;;;;;2.20;0.60;;;;;;;;;;5063129;28;20032;-83
2024/03/09 10:35:29;;;;;;;0.77;0.57;;;;;;;;;;5071655;28;20031;-82
2024/03/09 10:37:55;;;;;;;0.75;0.60;;;;;;;;;;5063560;28;20025;-83
2024/03/09 10:40:22;;;;;;;1.23;0.73;;;12.50;53.20;;;;;;5064741;28;20025;-83
2024/03/09 10:42:50;;;;;;;1.23;0.80;;;12.40;53.20;;;;;;5054482;28;20024;-83
2024/03/09 10:45:18;;;;;;;0.65;0.43;;;12.30;52.90;;;;;;5077206;28;20024;-84
2024/03/09 10:47:52;;;;;;;0.50;0.50;;;12.50;74.80;;;;;;5054492;28;20025;-83
2024/03/09 10:50:28;;;;;;;0.40;0.40;;;12.30;75.00;;;;;;5076008;28;20484;-83
2024/03/09 10:53:00;;;;;;;2.17;0.57;;;12.40;75.00;;;;;;5061892;28;20032;-83
2024/03/09 10:55:34;;;;;;;3.55;0.73;;;12.40;53.20;;;;;;5070018;28;20074;-83
2024/03/09 10:58:04;;;;;;;11.13;0.70;;;12.50;53.40;;;;;;5078546;28;20032;-84
2024/03/09 11:00:31;;;;;;;0.47;0.47;;;;;;;;;;5059268;28;20029;-83
2024/03/09 11:03:00;;;;;;;2.47;0.75;;;12.80;52.80;;;;;;5077032;28;20633;-84
2024/03/09 11:05:27;;;;;;;1.30;0.70;;;12.80;52.80;;;;;;5079845;28;20037;-84
2024/03/09 11:07:54;;;;;;;0.52;0.40;;;12.80;58.80;;;;;;5073859;28;20032;-84
2024/03/09 11:10:22;;;;;;;0.47;0.47;;;13.00;74.40;;;;;;5066896;28;20031;-84
2024/03/09 11:12:49;;;;;;;0.60;0.57;;;12.80;52.10;;;;;;5064936;28;20029;-84
2024/03/09 11:15:15;;;;;;;0.52;0.35;;;12.90;52.10;;;;;;5063712;28;20045;-84
2024/03/09 11:17:49;;;;;;;0.90;0.50;;;;;;;;;;5069186;28;20042;-84
2024/03/09 11:20:20;;;;;;;0.30;0.30;;;13.10;51.40;;;;;;5080731;28;20040;-84
2024/03/09 11:22:47;;;;;;;0.98;0.60;;;;;;;;;;5048712;28;20032;-83
2024/03/09 11:25:14;;;;;;;0.55;0.30;;;13.10;50.70;;;;;;5063631;28;20047;-84
2024/03/09 11:27:41;;;;;;;0.68;0.57;;;13.20;67.60;;;;;;5072847;28;20040;-84
2024/03/09 11:30:13;;;;;;;0.30;0.30;;;13.00;55.90;;;;;;5082671;28;20713;-83
2024/03/09 11:32:42;;;;;;;0.80;0.80;;;12.90;51.20;;;;;;5073652;28;20508;-83
2024/03/09 11:35:27;;;;;;;0.77;0.55;;;;;;;;;;5070915;28;20039;-84
2024/03/09 11:37:56;;;;;;;0.40;0.40;;;;;;;;;;5069462;28;20016;-83
2024/03/09 11:40:23;;;;;;;3.83;0.50;;;;;;;;;;5069074;28;20021;-84
2024/03/09 11:42:59;;;;;;;0.30;0.30;;;12.80;52.60;;;;;;5070103;28;20038;-84
2024/03/09 11:45:29;;;;;;;2.70;0.38;;;;;;;;;;5069652;28;20056;-84
2024/03/09 11:47:55;;;;;;;1.13;0.55;;;;;;;;;;5069756;28;20056;-84
2024/03/09 11:50:21;;;;;;;2.70;0.55;;;;;;;;;;5070056;28;20028;-84
2024/03/09 11:52:47;;;;;;;0.60;0.60;;;;;;;;;;5069365;28;20029;-83
2024/03/09 11:55:13;;;;;;;2.60;0.40;;;;;;;;;;5069569;28;20021;-83
2024/03/09 11:57:42;;;;;;;0.75;0.47;;;;;;;;;;5069149;28;20036;-83
2024/03/09 12:00:08;;;;;;;0.40;0.40;;;12.80;50.20;;;;;;5069055;28;20108;-84
2024/03/09 12:02:38;;;;;;;1.05;0.50;;;12.80;50.10;;;;;;5062492;28;20059;-84
2024/03/09 12:05:17;;;;;;;0.80;0.30;;;12.70;50.30;;;;;;5068623;28;20062;-84
2024/03/09 12:07:46;;;;;;;0.82;0.50;;;12.70;50.10;;;;;;5069470;28;20112;-84
2024/03/09 12:10:15;;;;;;;0.40;0.40;;;;;;;;;;5077211;28;20574;-84
2024/03/09 12:12:44;;;;;;;0.50;0.50;;;12.60;49.80;;;;;;5086651;28;20055;-84
2024/03/09 12:15:11;;;;;;;1.40;0.50;;;12.40;49.60;;;;;;5076100;28;20072;-84
2024/03/09 12:17:40;;;;;;;0.47;0.47;;;13.00;49.60;;;;;;5071422;28;20583;-84
2024/03/09 12:20:08;;;;;;;0.30;0.30;;;13.10;70.80;;;;;;5083557;28;20481;-83
2024/03/09 12:22:35;;;;;;;0.73;0.50;;;;;;;;;;5088433;28;20048;-83
2024/03/09 12:25:02;;;;;;;;;;;13.20;48.60;;;;;;5088673;28;20040;-83
2024/03/09 12:27:28;;;;;;;0.40;0.40;;;;;;;;;;5085106;28;20324;-84
2024/03/09 12:29:55;;;;;;;0.70;0.70;;;;;;;;;;5069512;28;20329;-83
2024/03/09 12:32:28;;;;;;;0.40;0.40;;;13.50;48.80;;;;;;5081539;28;20401;-84
2024/03/09 12:34:54;;;;;;;3.72;0.50;;;;;;;;;;5068668;28;20062;-84
2024/03/09 12:37:26;;;;;;;0.87;0.63;;;15.00;48.40;;;;;;5080668;28;20029;-85
2024/03/09 12:40:22;;;;;;;0.30;0.30;;;14.40;69.00;;;;;;5068918;28;20027;-84
2024/03/09 12:42:54;;;;;;;1.65;0.65;;;14.30;47.70;;;;;;5059111;28;20021;-84
2024/03/09 12:45:24;;;;;;;1.58;0.90;;;14.40;62.30;;;;;;5082965;28;20040;-84
2024/03/09 12:47:54;;;;;;;1.52;1.42;;;;;;;;;;5071066;28;20077;-84
2024/03/09 12:50:21;;;;;;;1.40;1.05;;;14.60;47.30;;;;;;5072834;28;20073;-84
2024/03/09 12:52:51;;;;;;;1.50;0.45;;;14.70;45.70;;;;;;5061703;28;20025;-84
2024/03/09 12:55:24;;;;;;;1.52;0.50;;;14.40;53.40;;;;;;5073987;28;20029;-84
2024/03/09 12:57:55;;;;;;;1.83;0.60;;;14.60;46.00;;;;;;5082186;28;20032;-84
2024/03/09 13:00:22;;;;;;;1.08;0.52;;;14.50;46.60;;;;;;5058596;28;20036;-84
2024/03/09 13:02:49;;;;;;;2.35;1.00;;;14.40;47.20;;;;;;5072319;28;20055;-84
2024/03/09 13:05:20;;;;;;;0.85;0.85;;;14.50;47.40;;;;;;5060836;28;20131;-84
2024/03/09 13:07:48;;;;;;;0.57;0.50;;;14.60;46.80;;;;;;5065481;28;20481;-83
2024/03/09 13:10:24;;;;;;;;;;;14.70;46.20;;;;;;5072616;28;20020;-84
2024/03/09 13:12:51;;;;;;;2.95;0.40;;;14.50;46.10;;;;;;5084634;28;19909;-84
2024/03/09 13:15:20;;;;;;;0.50;0.50;;;;;;;;;;5076655;28;20174;-84
2024/03/09 13:17:49;;;;;;;0.77;0.40;;;14.30;46.60;;;;;;5089579;28;20051;-85
2024/03/09 13:20:18;;;;;;;0.95;0.50;;;;;;;;;;5080542;28;20091;-85
2024/03/09 13:22:47;;;;;;;0.40;0.40;;;;;;;;;;5090261;28;20032;-84
2024/03/09 13:25:13;;;;;;;0.70;0.52;;;;;;;;;;5079795;28;20571;-84
2024/03/09 13:27:39;;;;;;;0.50;0.50;;;;;;;;;;5065791;28;20535;-83
2024/03/09 13:30:25;;;;;;;0.60;0.40;;;13.70;54.00;;;;;;5076244;28;20036;-84
2024/03/09 13:32:51;;;;;;;0.40;0.40;;;;;;;;;;5060669;28;20028;-84
2024/03/09 13:35:21;;;;;;;0.57;0.50;;;;;;;;;;5086395;28;20031;-84
2024/03/09 13:37:47;;;;;;;0.38;0.35;;;13.30;47.20;;;;;;5084419;28;20029;-84
2024/03/09 13:40:14;;;;;;;0.37;0.37;;;;;;;;;;5072045;28;20425;-84
2024/03/09 13:42:40;;;;;;;0.63;0.63;;;13.40;69.70;;;;;;5084779;28;20028;-84
2024/03/09 13:45:10;;;;;;;0.50;0.50;;;13.00;70.10;;;;;;5072038;28;20618;-84
2024/03/09 13:47:39;;;;;;;0.85;0.57;;;12.90;48.60;;;;;;5083705;28;20024;-83
2024/03/09 13:50:09;;;;;;;0.30;0.30;;;12.90;48.50;;;;;;5088992;28;20070;-84
2024/03/09 13:52:36;;;;;;;0.30;0.30;;;12.90;48.70;;;;;;5072509;28;20108;-83
2024/03/09 13:55:02;;;;;;;1.52;0.45;;;;;;;;;;5070960;28;20042;-83
2024/03/09 13:57:28;;;;;;;2.38;0.80;;;;;;;;;;5071364;28;20103;-83
2024/03/09 13:59:57;;;;;;;0.68;0.45;;;;;;;;;;5071582;28;20036;-84
2024/03/09 14:02:25;;;;;;;1.17;0.50;;;;;;;;;;5081011;28;20106;-84
2024/03/09 14:04:52;;;;;;;0.20;0.20;;;12.80;48.60;;;;;;5077353;28;20453;-83